sensor_id;sensor_type;location;lat;lon;timestamp;P1;durP1;ratioP1;P2;durP2;ratioP2
14984;SDS011;7588;62.368;25.902;2022-08-01T00:00:28;7.17;;;5.97;;
14984;SDS011;7588;62.368;25.902;2022-08-01T00:02:53;7.93;;;6.47;;
14984;SDS011;7588;62.368;25.902;2022-08-01T00:05:19;8.53;;;6.20;;
14984;SDS011;7588;62.368;25.902;2022-08-01T00:07:45;6.90;;;5.83;;
14984;SDS011;7588;62.368;25.902;2022-08-01T00:10:12;10.20;;;7.10;;
14984;SDS011;7588;62.368;25.902;2022-08-01T00:12:39;7.30;;;6.30;;
14984;SDS011;7588;62.368;25.902;2022-08-01T00:15:07;8.33;;;6.10;;
14984;SDS011;7588;62.368;25.902;2022-08-01T00:17:34;7.37;;;6.40;;
14984;SDS011;7588;62.368;25.902;2022-08-01T00:20:00;6.90;;;6.10;;
14984;SDS011;7588;62.368;25.902;2022-08-01T00:22:29;8.60;;;6.80;;
14984;SDS011;7588;62.368;25.902;2022-08-01T00:24:56;8.73;;;7.17;;
14984;SDS011;7588;62.368;25.902;2022-08-01T00:27:21;7.13;;;6.37;;
14984;SDS011;7588;62.368;25.902;2022-08-01T00:29:47;8.07;;;7.27;;
14984;SDS011;7588;62.368;25.902;2022-08-01T00:32:13;11.40;;;6.53;;
14984;SDS011;7588;62.368;25.902;2022-08-01T00:34:39;6.83;;;6.13;;
14984;SDS011;7588;62.368;25.902;2022-08-01T00:37:05;7.33;;;5.63;;
14984;SDS011;7588;62.368;25.902;2022-08-01T00:39:30;6.97;;;6.30;;
14984;SDS011;7588;62.368;25.902;2022-08-01T00:41:58;7.13;;;5.97;;
14984;SDS011;7588;62.368;25.902;2022-08-01T00:44:24;8.40;;;5.97;;
14984;SDS011;7588;62.368;25.902;2022-08-01T00:46:50;4.47;;;4.03;;
14984;SDS011;7588;62.368;25.902;2022-08-01T00:49:16;5.97;;;5.37;;
14984;SDS011;7588;62.368;25.902;2022-08-01T00:51:41;6.73;;;5.20;;
14984;SDS011;7588;62.368;25.902;2022-08-01T00:54:07;6.10;;;5.50;;
14984;SDS011;7588;62.368;25.902;2022-08-01T00:56:33;5.20;;;4.70;;
14984;SDS011;7588;62.368;25.902;2022-08-01T00:58:59;7.10;;;5.10;;
14984;SDS011;7588;62.368;25.902;2022-08-01T01:01:25;9.57;;;5.43;;
14984;SDS011;7588;62.368;25.902;2022-08-01T01:03:52;7.13;;;6.13;;
14984;SDS011;7588;62.368;25.902;2022-08-01T01:14:33;8.70;;;6.23;;
14984;SDS011;7588;62.368;25.902;2022-08-01T01:17:11;8.77;;;6.37;;
14984;SDS011;7588;62.368;25.902;2022-08-01T01:19:43;7.63;;;6.87;;
14984;SDS011;7588;62.368;25.902;2022-08-01T01:27:51;8.00;;;6.83;;
14984;SDS011;7588;62.368;25.902;2022-08-01T01:30:22;7.90;;;7.17;;
14984;SDS011;7588;62.368;25.902;2022-08-01T01:32:53;8.50;;;6.90;;
14984;SDS011;7588;62.368;25.902;2022-08-01T01:35:23;8.07;;;7.27;;
14984;SDS011;7588;62.368;25.902;2022-08-01T01:37:53;8.03;;;7.23;;
14984;SDS011;7588;62.368;25.902;2022-08-01T01:40:26;8.80;;;7.93;;
14984;SDS011;7588;62.368;25.902;2022-08-01T01:42:53;9.23;;;8.33;;
14984;SDS011;7588;62.368;25.902;2022-08-01T01:45:21;9.10;;;8.17;;
14984;SDS011;7588;62.368;25.902;2022-08-01T01:47:49;9.97;;;8.23;;
14984;SDS011;7588;62.368;25.902;2022-08-01T01:50:16;10.33;;;8.00;;
14984;SDS011;7588;62.368;25.902;2022-08-01T01:52:44;13.30;;;8.40;;
14984;SDS011;7588;62.368;25.902;2022-08-01T01:55:11;8.70;;;7.87;;
14984;SDS011;7588;62.368;25.902;2022-08-01T01:57:41;11.50;;;8.63;;
14984;SDS011;7588;62.368;25.902;2022-08-01T02:00:09;7.17;;;6.53;;
14984;SDS011;7588;62.368;25.902;2022-08-01T02:02:36;8.53;;;6.57;;
14984;SDS011;7588;62.368;25.902;2022-08-01T02:05:04;7.83;;;7.13;;
14984;SDS011;7588;62.368;25.902;2022-08-01T02:07:32;8.07;;;7.27;;
14984;SDS011;7588;62.368;25.902;2022-08-01T02:10:00;8.73;;;6.90;;
14984;SDS011;7588;62.368;25.902;2022-08-01T02:12:28;7.87;;;6.63;;
14984;SDS011;7588;62.368;25.902;2022-08-01T02:14:57;13.30;;;6.90;;
14984;SDS011;7588;62.368;25.902;2022-08-01T02:17:23;10.47;;;7.23;;
14984;SDS011;7588;62.368;25.902;2022-08-01T02:19:49;8.53;;;6.90;;
14984;SDS011;7588;62.368;25.902;2022-08-01T02:22:16;13.87;;;7.60;;
14984;SDS011;7588;62.368;25.902;2022-08-01T02:25:02;9.03;;;7.50;;
14984;SDS011;7588;62.368;25.902;2022-08-01T02:27:46;8.67;;;7.27;;
14984;SDS011;7588;62.368;25.902;2022-08-01T02:30:14;9.47;;;8.07;;
14984;SDS011;7588;62.368;25.902;2022-08-01T02:32:44;11.17;;;9.00;;
14984;SDS011;7588;62.368;25.902;2022-08-01T02:35:19;8.23;;;7.33;;
14984;SDS011;7588;62.368;25.902;2022-08-01T02:37:56;8.97;;;7.57;;
14984;SDS011;7588;62.368;25.902;2022-08-01T02:40:23;12.73;;;8.70;;
14984;SDS011;7588;62.368;25.902;2022-08-01T02:42:53;9.63;;;8.70;;
14984;SDS011;7588;62.368;25.902;2022-08-01T02:45:22;11.23;;;8.77;;
14984;SDS011;7588;62.368;25.902;2022-08-01T02:47:51;9.00;;;8.10;;
14984;SDS011;7588;62.368;25.902;2022-08-01T02:50:22;14.43;;;8.57;;
14984;SDS011;7588;62.368;25.902;2022-08-01T02:52:51;11.73;;;9.43;;
14984;SDS011;7588;62.368;25.902;2022-08-01T02:55:19;9.50;;;8.30;;
14984;SDS011;7588;62.368;25.902;2022-08-01T02:57:45;11.70;;;10.27;;
14984;SDS011;7588;62.368;25.902;2022-08-01T03:00:14;12.53;;;9.87;;
14984;SDS011;7588;62.368;25.902;2022-08-01T03:02:41;12.27;;;9.67;;
14984;SDS011;7588;62.368;25.902;2022-08-01T03:05:10;13.53;;;10.50;;
14984;SDS011;7588;62.368;25.902;2022-08-01T03:07:38;9.40;;;7.80;;
14984;SDS011;7588;62.368;25.902;2022-08-01T03:10:05;7.73;;;6.93;;
14984;SDS011;7588;62.368;25.902;2022-08-01T03:12:33;11.40;;;8.10;;
14984;SDS011;7588;62.368;25.902;2022-08-01T03:14:59;10.10;;;8.77;;
14984;SDS011;7588;62.368;25.902;2022-08-01T03:17:27;9.40;;;8.23;;
14984;SDS011;7588;62.368;25.902;2022-08-01T03:19:54;10.40;;;9.30;;
14984;SDS011;7588;62.368;25.902;2022-08-01T03:22:23;12.40;;;8.67;;
14984;SDS011;7588;62.368;25.902;2022-08-01T03:24:51;10.97;;;9.87;;
14984;SDS011;7588;62.368;25.902;2022-08-01T03:27:22;10.80;;;9.80;;
14984;SDS011;7588;62.368;25.902;2022-08-01T03:29:49;11.07;;;10.00;;
14984;SDS011;7588;62.368;25.902;2022-08-01T03:32:16;11.47;;;9.70;;
14984;SDS011;7588;62.368;25.902;2022-08-01T03:34:44;9.87;;;8.77;;
14984;SDS011;7588;62.368;25.902;2022-08-01T03:39:50;13.67;;;10.47;;
14984;SDS011;7588;62.368;25.902;2022-08-01T03:42:25;12.53;;;10.40;;
14984;SDS011;7588;62.368;25.902;2022-08-01T03:44:58;9.67;;;8.67;;
14984;SDS011;7588;62.368;25.902;2022-08-01T03:47:32;10.77;;;9.27;;
14984;SDS011;7588;62.368;25.902;2022-08-01T03:50:00;10.07;;;8.70;;
14984;SDS011;7588;62.368;25.902;2022-08-01T03:52:31;12.57;;;10.10;;
14984;SDS011;7588;62.368;25.902;2022-08-01T03:55:05;12.57;;;8.80;;
14984;SDS011;7588;62.368;25.902;2022-08-01T03:57:32;13.47;;;9.90;;
14984;SDS011;7588;62.368;25.902;2022-08-01T03:59:59;12.90;;;9.60;;
14984;SDS011;7588;62.368;25.902;2022-08-01T04:02:26;10.80;;;9.63;;
14984;SDS011;7588;62.368;25.902;2022-08-01T04:04:53;10.30;;;8.53;;
14984;SDS011;7588;62.368;25.902;2022-08-01T04:07:26;8.73;;;7.83;;
14984;SDS011;7588;62.368;25.902;2022-08-01T04:09:54;11.00;;;8.37;;
14984;SDS011;7588;62.368;25.902;2022-08-01T04:12:20;11.17;;;8.03;;
14984;SDS011;7588;62.368;25.902;2022-08-01T04:14:46;12.83;;;8.67;;
14984;SDS011;7588;62.368;25.902;2022-08-01T04:17:12;11.00;;;9.93;;
14984;SDS011;7588;62.368;25.902;2022-08-01T04:19:38;11.93;;;10.37;;
14984;SDS011;7588;62.368;25.902;2022-08-01T04:22:04;10.80;;;9.80;;
14984;SDS011;7588;62.368;25.902;2022-08-01T04:24:32;11.33;;;8.63;;
14984;SDS011;7588;62.368;25.902;2022-08-01T04:27:00;11.30;;;8.97;;
14984;SDS011;7588;62.368;25.902;2022-08-01T04:29:28;12.23;;;10.03;;
14984;SDS011;7588;62.368;25.902;2022-08-01T04:31:56;13.60;;;12.30;;
14984;SDS011;7588;62.368;25.902;2022-08-01T04:34:25;10.60;;;9.53;;
14984;SDS011;7588;62.368;25.902;2022-08-01T04:36:54;10.90;;;8.20;;
14984;SDS011;7588;62.368;25.902;2022-08-01T04:39:22;9.93;;;8.00;;
14984;SDS011;7588;62.368;25.902;2022-08-01T04:41:52;9.43;;;8.35;;
14984;SDS011;7588;62.368;25.902;2022-08-01T04:44:22;8.63;;;7.82;;
14984;SDS011;7588;62.368;25.902;2022-08-01T04:46:48;8.47;;;6.67;;
14984;SDS011;7588;62.368;25.902;2022-08-01T04:49:15;6.82;;;5.45;;
14984;SDS011;7588;62.368;25.902;2022-08-01T04:51:54;8.18;;;5.70;;
14984;SDS011;7588;62.368;25.902;2022-08-01T04:54:25;6.15;;;5.30;;
14984;SDS011;7588;62.368;25.902;2022-08-01T04:56:53;7.13;;;5.28;;
14984;SDS011;7588;62.368;25.902;2022-08-01T04:59:23;5.93;;;5.32;;
14984;SDS011;7588;62.368;25.902;2022-08-01T05:02:04;5.20;;;4.80;;
14984;SDS011;7588;62.368;25.902;2022-08-01T05:04:31;5.78;;;4.80;;
14984;SDS011;7588;62.368;25.902;2022-08-01T05:06:57;8.02;;;4.97;;
14984;SDS011;7588;62.368;25.902;2022-08-01T05:09:22;4.93;;;4.53;;
14984;SDS011;7588;62.368;25.902;2022-08-01T05:11:48;4.53;;;4.05;;
14984;SDS011;7588;62.368;25.902;2022-08-01T05:14:14;3.75;;;3.15;;
14984;SDS011;7588;62.368;25.902;2022-08-01T05:16:40;5.15;;;3.33;;
14984;SDS011;7588;62.368;25.902;2022-08-01T05:19:06;3.60;;;3.30;;
14984;SDS011;7588;62.368;25.902;2022-08-01T05:21:33;3.97;;;2.70;;
14984;SDS011;7588;62.368;25.902;2022-08-01T05:23:59;3.25;;;2.58;;
14984;SDS011;7588;62.368;25.902;2022-08-01T05:26:25;3.22;;;3.00;;
14984;SDS011;7588;62.368;25.902;2022-08-01T05:28:51;3.33;;;2.78;;
14984;SDS011;7588;62.368;25.902;2022-08-01T05:31:16;4.20;;;3.00;;
14984;SDS011;7588;62.368;25.902;2022-08-01T05:33:42;3.88;;;3.50;;
14984;SDS011;7588;62.368;25.902;2022-08-01T05:36:08;3.63;;;3.33;;
14984;SDS011;7588;62.368;25.902;2022-08-01T05:38:34;4.65;;;3.42;;
14984;SDS011;7588;62.368;25.902;2022-08-01T05:40:59;4.53;;;3.90;;
14984;SDS011;7588;62.368;25.902;2022-08-01T05:43:25;3.70;;;3.40;;
14984;SDS011;7588;62.368;25.902;2022-08-01T05:45:51;5.22;;;3.67;;
14984;SDS011;7588;62.368;25.902;2022-08-01T05:48:17;3.97;;;3.55;;
14984;SDS011;7588;62.368;25.902;2022-08-01T05:50:43;3.35;;;3.05;;
14984;SDS011;7588;62.368;25.902;2022-08-01T05:53:08;7.32;;;3.88;;
14984;SDS011;7588;62.368;25.902;2022-08-01T05:55:35;5.32;;;3.17;;
14984;SDS011;7588;62.368;25.902;2022-08-01T05:58:01;4.18;;;3.33;;
14984;SDS011;7588;62.368;25.902;2022-08-01T06:00:27;3.47;;;3.17;;
14984;SDS011;7588;62.368;25.902;2022-08-01T06:02:53;4.45;;;3.03;;
14984;SDS011;7588;62.368;25.902;2022-08-01T06:05:19;2.90;;;2.70;;
14984;SDS011;7588;62.368;25.902;2022-08-01T06:07:44;2.72;;;2.53;;
14984;SDS011;7588;62.368;25.902;2022-08-01T06:10:10;3.25;;;2.90;;
14984;SDS011;7588;62.368;25.902;2022-08-01T06:12:36;3.33;;;2.70;;
14984;SDS011;7588;62.368;25.902;2022-08-01T06:15:03;2.95;;;2.45;;
14984;SDS011;7588;62.368;25.902;2022-08-01T06:17:29;3.85;;;2.50;;
14984;SDS011;7588;62.368;25.902;2022-08-01T06:19:55;3.10;;;2.90;;
14984;SDS011;7588;62.368;25.902;2022-08-01T06:22:21;3.72;;;3.00;;
14984;SDS011;7588;62.368;25.902;2022-08-01T06:24:47;3.00;;;2.80;;
14984;SDS011;7588;62.368;25.902;2022-08-01T06:27:12;4.70;;;2.97;;
14984;SDS011;7588;62.368;25.902;2022-08-01T06:29:38;4.47;;;3.30;;
14984;SDS011;7588;62.368;25.902;2022-08-01T06:32:04;3.88;;;3.50;;
14984;SDS011;7588;62.368;25.902;2022-08-01T06:34:30;3.47;;;3.17;;
14984;SDS011;7588;62.368;25.902;2022-08-01T06:36:55;3.80;;;3.50;;
14984;SDS011;7588;62.368;25.902;2022-08-01T06:39:21;4.60;;;3.88;;
14984;SDS011;7588;62.368;25.902;2022-08-01T06:41:47;3.67;;;3.35;;
14984;SDS011;7588;62.368;25.902;2022-08-01T06:44:13;3.63;;;3.33;;
14984;SDS011;7588;62.368;25.902;2022-08-01T06:46:39;3.15;;;2.85;;
14984;SDS011;7588;62.368;25.902;2022-08-01T06:49:04;6.57;;;2.88;;
14984;SDS011;7588;62.368;25.902;2022-08-01T06:51:30;2.70;;;2.50;;
14984;SDS011;7588;62.368;25.902;2022-08-01T06:53:56;2.70;;;2.15;;
14984;SDS011;7588;62.368;25.902;2022-08-01T06:56:22;3.78;;;2.20;;
14984;SDS011;7588;62.368;25.902;2022-08-01T06:58:48;3.20;;;2.33;;
14984;SDS011;7588;62.368;25.902;2022-08-01T07:01:15;2.45;;;2.22;;
14984;SDS011;7588;62.368;25.902;2022-08-01T07:03:41;2.50;;;2.25;;
14984;SDS011;7588;62.368;25.902;2022-08-01T07:06:07;2.53;;;1.63;;
14984;SDS011;7588;62.368;25.902;2022-08-01T07:08:33;2.33;;;2.13;;
14984;SDS011;7588;62.368;25.902;2022-08-01T07:10:58;2.25;;;1.80;;
14984;SDS011;7588;62.368;25.902;2022-08-01T07:13:27;2.33;;;1.70;;
14984;SDS011;7588;62.368;25.902;2022-08-01T07:15:55;3.38;;;2.13;;
14984;SDS011;7588;62.368;25.902;2022-08-01T07:18:21;2.05;;;1.63;;
14984;SDS011;7588;62.368;25.902;2022-08-01T07:20:48;2.92;;;1.70;;
14984;SDS011;7588;62.368;25.902;2022-08-01T07:23:15;2.50;;;1.67;;
14984;SDS011;7588;62.368;25.902;2022-08-01T07:25:41;2.00;;;1.80;;
14984;SDS011;7588;62.368;25.902;2022-08-01T07:28:07;1.98;;;1.63;;
14984;SDS011;7588;62.368;25.902;2022-08-01T07:30:33;1.88;;;1.75;;
14984;SDS011;7588;62.368;25.902;2022-08-01T07:32:59;4.47;;;1.95;;
14984;SDS011;7588;62.368;25.902;2022-08-01T07:35:26;1.90;;;1.77;;
14984;SDS011;7588;62.368;25.902;2022-08-01T07:37:51;2.05;;;1.85;;
14984;SDS011;7588;62.368;25.902;2022-08-01T07:40:18;2.90;;;1.70;;
14984;SDS011;7588;62.368;25.902;2022-08-01T07:42:44;1.80;;;1.70;;
14984;SDS011;7588;62.368;25.902;2022-08-01T07:45:11;1.90;;;1.80;;
14984;SDS011;7588;62.368;25.902;2022-08-01T07:47:38;2.25;;;1.83;;
14984;SDS011;7588;62.368;25.902;2022-08-01T07:50:04;3.00;;;2.10;;
14984;SDS011;7588;62.368;25.902;2022-08-01T07:52:30;2.25;;;1.90;;
14984;SDS011;7588;62.368;25.902;2022-08-01T07:54:57;4.38;;;2.17;;
14984;SDS011;7588;62.368;25.902;2022-08-01T07:57:23;2.60;;;2.13;;
14984;SDS011;7588;62.368;25.902;2022-08-01T07:59:50;1.90;;;1.67;;
14984;SDS011;7588;62.368;25.902;2022-08-01T08:02:16;2.90;;;1.75;;
14984;SDS011;7588;62.368;25.902;2022-08-01T08:04:42;2.13;;;1.92;;
14984;SDS011;7588;62.368;25.902;2022-08-01T08:07:08;4.38;;;2.47;;
14984;SDS011;7588;62.368;25.902;2022-08-01T08:09:33;4.38;;;2.55;;
14984;SDS011;7588;62.368;25.902;2022-08-01T08:11:59;2.50;;;2.00;;
14984;SDS011;7588;62.368;25.902;2022-08-01T08:14:25;2.38;;;2.10;;
14984;SDS011;7588;62.368;25.902;2022-08-01T08:16:51;1.63;;;1.50;;
14984;SDS011;7588;62.368;25.902;2022-08-01T08:19:17;2.40;;;1.23;;
14984;SDS011;7588;62.368;25.902;2022-08-01T08:21:42;2.50;;;1.50;;
14984;SDS011;7588;62.368;25.902;2022-08-01T08:24:09;1.90;;;1.48;;
14984;SDS011;7588;62.368;25.902;2022-08-01T08:26:44;2.72;;;1.60;;
14984;SDS011;7588;62.368;25.902;2022-08-01T08:29:14;1.77;;;1.20;;
14984;SDS011;7588;62.368;25.902;2022-08-01T08:31:39;2.05;;;1.50;;
14984;SDS011;7588;62.368;25.902;2022-08-01T08:34:05;1.60;;;1.48;;
14984;SDS011;7588;62.368;25.902;2022-08-01T08:36:31;3.15;;;1.45;;
14984;SDS011;7588;62.368;25.902;2022-08-01T08:38:57;2.47;;;1.40;;
14984;SDS011;7588;62.368;25.902;2022-08-01T08:41:25;1.92;;;1.48;;
14984;SDS011;7588;62.368;25.902;2022-08-01T08:43:51;1.88;;;1.50;;
14984;SDS011;7588;62.368;25.902;2022-08-01T08:46:18;1.70;;;1.60;;
14984;SDS011;7588;62.368;25.902;2022-08-01T08:48:45;1.85;;;1.40;;
14984;SDS011;7588;62.368;25.902;2022-08-01T08:51:11;1.40;;;1.30;;
14984;SDS011;7588;62.368;25.902;2022-08-01T08:53:38;2.30;;;1.30;;
14984;SDS011;7588;62.368;25.902;2022-08-01T08:56:10;1.50;;;1.40;;
14984;SDS011;7588;62.368;25.902;2022-08-01T08:58:38;1.58;;;1.48;;
14984;SDS011;7588;62.368;25.902;2022-08-01T09:01:06;3.92;;;1.30;;
14984;SDS011;7588;62.368;25.902;2022-08-01T09:03:35;2.28;;;1.30;;
14984;SDS011;7588;62.368;25.902;2022-08-01T09:06:02;1.48;;;1.20;;
14984;SDS011;7588;62.368;25.902;2022-08-01T09:08:28;1.30;;;1.15;;
14984;SDS011;7588;62.368;25.902;2022-08-01T09:10:54;2.20;;;1.20;;
14984;SDS011;7588;62.368;25.902;2022-08-01T09:13:20;4.35;;;1.40;;
14984;SDS011;7588;62.368;25.902;2022-08-01T09:15:53;2.20;;;1.40;;
14984;SDS011;7588;62.368;25.902;2022-08-01T09:21:20;3.58;;;1.42;;
14984;SDS011;7588;62.368;25.902;2022-08-01T09:26:16;2.22;;;1.23;;
14984;SDS011;7588;62.368;25.902;2022-08-01T09:29:04;3.95;;;1.38;;
14984;SDS011;7588;62.368;25.902;2022-08-01T09:31:42;2.25;;;1.00;;
14984;SDS011;7588;62.368;25.902;2022-08-01T09:34:09;1.65;;;1.02;;
14984;SDS011;7588;62.368;25.902;2022-08-01T09:36:48;1.60;;;0.95;;
14984;SDS011;7588;62.368;25.902;2022-08-01T09:39:31;5.32;;;1.10;;
14984;SDS011;7588;62.368;25.902;2022-08-01T09:42:18;2.35;;;1.00;;
14984;SDS011;7588;62.368;25.902;2022-08-01T09:44:49;3.65;;;0.93;;
14984;SDS011;7588;62.368;25.902;2022-08-01T09:47:15;0.90;;;0.80;;
14984;SDS011;7588;62.368;25.902;2022-08-01T09:49:42;2.85;;;0.98;;
14984;SDS011;7588;62.368;25.902;2022-08-01T09:52:27;0.80;;;0.80;;
14984;SDS011;7588;62.368;25.902;2022-08-01T09:54:59;1.23;;;0.90;;
14984;SDS011;7588;62.368;25.902;2022-08-01T09:57:38;0.80;;;0.80;;
14984;SDS011;7588;62.368;25.902;2022-08-01T10:00:04;2.40;;;0.93;;
14984;SDS011;7588;62.368;25.902;2022-08-01T10:02:37;1.50;;;1.00;;
14984;SDS011;7588;62.368;25.902;2022-08-01T10:05:05;1.45;;;0.85;;
14984;SDS011;7588;62.368;25.902;2022-08-01T10:07:32;1.65;;;0.95;;
14984;SDS011;7588;62.368;25.902;2022-08-01T10:10:12;1.15;;;0.90;;
14984;SDS011;7588;62.368;25.902;2022-08-01T10:12:39;1.13;;;1.00;;
14984;SDS011;7588;62.368;25.902;2022-08-01T10:15:06;1.98;;;1.02;;
14984;SDS011;7588;62.368;25.902;2022-08-01T10:17:33;2.22;;;1.08;;
14984;SDS011;7588;62.368;25.902;2022-08-01T10:20:02;1.10;;;1.00;;
14984;SDS011;7588;62.368;25.902;2022-08-01T10:22:29;1.13;;;1.00;;
14984;SDS011;7588;62.368;25.902;2022-08-01T10:24:56;0.88;;;0.80;;
14984;SDS011;7588;62.368;25.902;2022-08-01T10:27:26;2.28;;;1.00;;
14984;SDS011;7588;62.368;25.902;2022-08-01T10:29:58;1.33;;;0.95;;
14984;SDS011;7588;62.368;25.902;2022-08-01T10:32:33;0.90;;;0.90;;
14984;SDS011;7588;62.368;25.902;2022-08-01T10:35:00;2.90;;;0.70;;
14984;SDS011;7588;62.368;25.902;2022-08-01T10:37:28;1.60;;;1.00;;
14984;SDS011;7588;62.368;25.902;2022-08-01T10:39:54;0.90;;;0.90;;
14984;SDS011;7588;62.368;25.902;2022-08-01T10:42:21;0.93;;;0.82;;
14984;SDS011;7588;62.368;25.902;2022-08-01T10:44:48;1.00;;;0.90;;
14984;SDS011;7588;62.368;25.902;2022-08-01T10:47:18;0.80;;;0.80;;
14984;SDS011;7588;62.368;25.902;2022-08-01T10:50:04;2.08;;;0.90;;
14984;SDS011;7588;62.368;25.902;2022-08-01T10:52:38;1.40;;;0.80;;
14984;SDS011;7588;62.368;25.902;2022-08-01T10:55:07;1.50;;;0.80;;
14984;SDS011;7588;62.368;25.902;2022-08-01T10:57:46;1.27;;;0.80;;
14984;SDS011;7588;62.368;25.902;2022-08-01T11:00:21;2.03;;;0.90;;
14984;SDS011;7588;62.368;25.902;2022-08-01T11:03:00;0.98;;;0.80;;
14984;SDS011;7588;62.368;25.902;2022-08-01T11:05:34;2.45;;;0.90;;
14984;SDS011;7588;62.368;25.902;2022-08-01T11:08:01;2.25;;;1.00;;
14984;SDS011;7588;62.368;25.902;2022-08-01T11:13:04;1.10;;;0.70;;
14984;SDS011;7588;62.368;25.902;2022-08-01T11:15:33;1.08;;;0.77;;
14984;SDS011;7588;62.368;25.902;2022-08-01T11:18:00;1.08;;;0.98;;
14984;SDS011;7588;62.368;25.902;2022-08-01T11:20:55;1.35;;;0.90;;
14984;SDS011;7588;62.368;25.902;2022-08-01T11:23:23;2.50;;;0.88;;
14984;SDS011;7588;62.368;25.902;2022-08-01T11:30:45;0.95;;;0.85;;
14984;SDS011;7588;62.368;25.902;2022-08-01T11:33:17;1.30;;;1.20;;
14984;SDS011;7588;62.368;25.902;2022-08-01T11:38:36;0.90;;;0.90;;
14984;SDS011;7588;62.368;25.902;2022-08-01T11:41:22;1.02;;;1.00;;
14984;SDS011;7588;62.368;25.902;2022-08-01T11:44:02;1.55;;;1.17;;
14984;SDS011;7588;62.368;25.902;2022-08-01T11:54:30;1.13;;;0.95;;
14984;SDS011;7588;62.368;25.902;2022-08-01T11:56:58;0.93;;;0.85;;
14984;SDS011;7588;62.368;25.902;2022-08-01T11:59:25;1.27;;;0.82;;
14984;SDS011;7588;62.368;25.902;2022-08-01T12:01:51;1.00;;;0.70;;
14984;SDS011;7588;62.368;25.902;2022-08-01T12:04:18;1.33;;;0.90;;
14984;SDS011;7588;62.368;25.902;2022-08-01T12:06:44;0.95;;;0.90;;
14984;SDS011;7588;62.368;25.902;2022-08-01T12:09:28;2.00;;;0.98;;
14984;SDS011;7588;62.368;25.902;2022-08-01T12:11:54;1.23;;;0.90;;
14984;SDS011;7588;62.368;25.902;2022-08-01T12:14:20;0.75;;;0.75;;
14984;SDS011;7588;62.368;25.902;2022-08-01T12:16:53;1.67;;;0.70;;
14984;SDS011;7588;62.368;25.902;2022-08-01T12:19:22;1.73;;;0.93;;
14984;SDS011;7588;62.368;25.902;2022-08-01T12:22:08;2.35;;;0.82;;
14984;SDS011;7588;62.368;25.902;2022-08-01T12:24:35;2.90;;;1.30;;
14984;SDS011;7588;62.368;25.902;2022-08-01T12:27:02;1.00;;;0.90;;
14984;SDS011;7588;62.368;25.902;2022-08-01T12:29:40;1.00;;;1.00;;
14984;SDS011;7588;62.368;25.902;2022-08-01T12:32:25;1.60;;;0.85;;
14984;SDS011;7588;62.368;25.902;2022-08-01T12:34:51;0.70;;;0.70;;
14984;SDS011;7588;62.368;25.902;2022-08-01T12:37:18;1.15;;;0.90;;
14984;SDS011;7588;62.368;25.902;2022-08-01T12:39:44;1.10;;;0.77;;
14984;SDS011;7588;62.368;25.902;2022-08-01T12:42:11;1.63;;;1.15;;
14984;SDS011;7588;62.368;25.902;2022-08-01T12:44:38;1.80;;;0.80;;
14984;SDS011;7588;62.368;25.902;2022-08-01T12:47:05;1.08;;;0.98;;
14984;SDS011;7588;62.368;25.902;2022-08-01T12:49:32;2.15;;;1.00;;
14984;SDS011;7588;62.368;25.902;2022-08-01T12:52:00;1.10;;;1.00;;
14984;SDS011;7588;62.368;25.902;2022-08-01T12:54:26;1.15;;;1.05;;
14984;SDS011;7588;62.368;25.902;2022-08-01T12:56:52;1.05;;;0.90;;
14984;SDS011;7588;62.368;25.902;2022-08-01T12:59:19;1.35;;;0.90;;
14984;SDS011;7588;62.368;25.902;2022-08-01T13:01:47;1.20;;;1.10;;
14984;SDS011;7588;62.368;25.902;2022-08-01T13:04:13;1.45;;;1.10;;
14984;SDS011;7588;62.368;25.902;2022-08-01T13:06:39;1.50;;;0.80;;
14984;SDS011;7588;62.368;25.902;2022-08-01T13:09:05;3.03;;;0.80;;
14984;SDS011;7588;62.368;25.902;2022-08-01T13:11:32;2.60;;;0.90;;
14984;SDS011;7588;62.368;25.902;2022-08-01T13:13:58;1.70;;;0.85;;
14984;SDS011;7588;62.368;25.902;2022-08-01T13:16:25;1.05;;;0.85;;
14984;SDS011;7588;62.368;25.902;2022-08-01T13:18:52;0.70;;;0.70;;
14984;SDS011;7588;62.368;25.902;2022-08-01T13:21:21;1.15;;;0.90;;
14984;SDS011;7588;62.368;25.902;2022-08-01T13:24:10;1.50;;;0.85;;
14984;SDS011;7588;62.368;25.902;2022-08-01T13:29:08;1.00;;;0.88;;
14984;SDS011;7588;62.368;25.902;2022-08-01T13:31:35;0.80;;;0.80;;
14984;SDS011;7588;62.368;25.902;2022-08-01T13:34:02;1.17;;;1.00;;
14984;SDS011;7588;62.368;25.902;2022-08-01T13:36:28;1.38;;;1.27;;
14984;SDS011;7588;62.368;25.902;2022-08-01T13:38:55;1.20;;;1.10;;
14984;SDS011;7588;62.368;25.902;2022-08-01T13:41:39;1.33;;;1.00;;
14984;SDS011;7588;62.368;25.902;2022-08-01T13:44:05;1.17;;;1.00;;
14984;SDS011;7588;62.368;25.902;2022-08-01T13:46:33;2.50;;;1.20;;
14984;SDS011;7588;62.368;25.902;2022-08-01T13:48:59;1.63;;;1.20;;
14984;SDS011;7588;62.368;25.902;2022-08-01T13:51:26;2.10;;;1.10;;
14984;SDS011;7588;62.368;25.902;2022-08-01T13:53:52;2.88;;;1.10;;
14984;SDS011;7588;62.368;25.902;2022-08-01T13:56:17;1.00;;;0.90;;
14984;SDS011;7588;62.368;25.902;2022-08-01T13:58:44;1.10;;;1.00;;
14984;SDS011;7588;62.368;25.902;2022-08-01T14:01:10;1.55;;;0.80;;
14984;SDS011;7588;62.368;25.902;2022-08-01T14:03:36;1.48;;;0.73;;
14984;SDS011;7588;62.368;25.902;2022-08-01T14:06:02;2.25;;;0.77;;
14984;SDS011;7588;62.368;25.902;2022-08-01T14:08:29;0.90;;;0.90;;
14984;SDS011;7588;62.368;25.902;2022-08-01T14:10:56;0.90;;;0.90;;
14984;SDS011;7588;62.368;25.902;2022-08-01T14:13:24;3.35;;;1.02;;
14984;SDS011;7588;62.368;25.902;2022-08-01T14:15:50;0.88;;;0.88;;
14984;SDS011;7588;62.368;25.902;2022-08-01T14:18:17;0.70;;;0.70;;
14984;SDS011;7588;62.368;25.902;2022-08-01T14:20:42;1.25;;;0.95;;
14984;SDS011;7588;62.368;25.902;2022-08-01T14:23:09;0.90;;;0.80;;
14984;SDS011;7588;62.368;25.902;2022-08-01T14:25:35;0.82;;;0.70;;
14984;SDS011;7588;62.368;25.902;2022-08-01T14:28:02;1.35;;;1.05;;
14984;SDS011;7588;62.368;25.902;2022-08-01T14:30:28;1.00;;;0.90;;
14984;SDS011;7588;62.368;25.902;2022-08-01T14:32:54;0.98;;;0.80;;
14984;SDS011;7588;62.368;25.902;2022-08-01T14:35:19;0.85;;;0.85;;
14984;SDS011;7588;62.368;25.902;2022-08-01T14:37:45;1.63;;;0.93;;
14984;SDS011;7588;62.368;25.902;2022-08-01T14:40:11;0.73;;;0.60;;
14984;SDS011;7588;62.368;25.902;2022-08-01T14:42:37;1.45;;;1.00;;
14984;SDS011;7588;62.368;25.902;2022-08-01T14:45:03;1.02;;;0.90;;
14984;SDS011;7588;62.368;25.902;2022-08-01T14:47:34;0.70;;;0.70;;
14984;SDS011;7588;62.368;25.902;2022-08-01T14:50:04;0.93;;;0.93;;
14984;SDS011;7588;62.368;25.902;2022-08-01T14:52:32;1.00;;;0.90;;
14984;SDS011;7588;62.368;25.902;2022-08-01T14:54:58;1.73;;;0.75;;
14984;SDS011;7588;62.368;25.902;2022-08-01T14:57:24;0.85;;;0.80;;
14984;SDS011;7588;62.368;25.902;2022-08-01T14:59:50;0.95;;;0.90;;
14984;SDS011;7588;62.368;25.902;2022-08-01T15:02:16;0.90;;;0.90;;
14984;SDS011;7588;62.368;25.902;2022-08-01T15:04:45;0.88;;;0.88;;
14984;SDS011;7588;62.368;25.902;2022-08-01T15:07:12;0.90;;;0.90;;
14984;SDS011;7588;62.368;25.902;2022-08-01T15:09:38;0.80;;;0.80;;
14984;SDS011;7588;62.368;25.902;2022-08-01T15:12:04;2.28;;;0.95;;
14984;SDS011;7588;62.368;25.902;2022-08-01T15:14:31;0.90;;;0.90;;
14984;SDS011;7588;62.368;25.902;2022-08-01T15:17:19;1.20;;;1.10;;
14984;SDS011;7588;62.368;25.902;2022-08-01T15:19:49;1.60;;;1.20;;
14984;SDS011;7588;62.368;25.902;2022-08-01T15:22:17;1.33;;;0.93;;
14984;SDS011;7588;62.368;25.902;2022-08-01T15:24:44;0.90;;;0.90;;
14984;SDS011;7588;62.368;25.902;2022-08-01T15:27:09;0.80;;;0.80;;
14984;SDS011;7588;62.368;25.902;2022-08-01T15:29:36;1.00;;;1.00;;
14984;SDS011;7588;62.368;25.902;2022-08-01T15:32:03;0.80;;;0.80;;
14984;SDS011;7588;62.368;25.902;2022-08-01T15:34:29;0.90;;;0.90;;